sensor_id;sensor_type;location;lat;lon;timestamp;P1;durP1;ratioP1;P2;durP2;ratioP2
10805;SDS011;5455;53.224;6.000;2023-08-30T00:02:19;6.43;;;5.07;;
10805;SDS011;5455;53.224;6.000;2023-08-30T00:04:46;5.00;;;4.50;;
10805;SDS011;5455;53.224;6.000;2023-08-30T00:07:13;7.70;;;4.77;;
10805;SDS011;5455;53.224;6.000;2023-08-30T00:09:40;6.03;;;4.67;;
10805;SDS011;5455;53.224;6.000;2023-08-30T00:12:07;5.50;;;4.60;;
10805;SDS011;5455;53.224;6.000;2023-08-30T00:14:34;6.07;;;4.33;;
10805;SDS011;5455;53.224;6.000;2023-08-30T00:17:02;5.00;;;4.50;;
10805;SDS011;5455;53.224;6.000;2023-08-30T00:19:29;7.13;;;4.40;;
10805;SDS011;5455;53.224;6.000;2023-08-30T00:21:57;6.57;;;4.77;;
10805;SDS011;5455;53.224;6.000;2023-08-30T00:24:25;9.90;;;4.20;;
10805;SDS011;5455;53.224;6.000;2023-08-30T00:26:52;5.47;;;4.20;;
10805;SDS011;5455;53.224;6.000;2023-08-30T00:29:20;5.23;;;4.23;;
10805;SDS011;5455;53.224;6.000;2023-08-30T00:31:46;5.40;;;4.17;;
10805;SDS011;5455;53.224;6.000;2023-08-30T00:34:13;6.33;;;4.60;;
10805;SDS011;5455;53.224;6.000;2023-08-30T00:36:40;6.47;;;4.33;;
10805;SDS011;5455;53.224;6.000;2023-08-30T00:39:07;4.70;;;3.97;;
10805;SDS011;5455;53.224;6.000;2023-08-30T00:41:35;6.40;;;4.60;;
10805;SDS011;5455;53.224;6.000;2023-08-30T00:44:02;5.70;;;4.70;;
10805;SDS011;5455;53.224;6.000;2023-08-30T00:46:29;5.80;;;4.70;;
10805;SDS011;5455;53.224;6.000;2023-08-30T00:48:59;6.00;;;4.67;;
10805;SDS011;5455;53.224;6.000;2023-08-30T00:51:27;5.63;;;4.53;;
10805;SDS011;5455;53.224;6.000;2023-08-30T00:53:54;5.57;;;4.50;;
10805;SDS011;5455;53.224;6.000;2023-08-30T00:56:21;5.83;;;4.43;;
10805;SDS011;5455;53.224;6.000;2023-08-30T00:58:49;7.30;;;4.87;;
10805;SDS011;5455;53.224;6.000;2023-08-30T01:01:17;6.13;;;4.97;;
10805;SDS011;5455;53.224;6.000;2023-08-30T01:03:44;5.47;;;4.43;;
10805;SDS011;5455;53.224;6.000;2023-08-30T01:06:12;5.37;;;4.50;;
10805;SDS011;5455;53.224;6.000;2023-08-30T01:08:41;6.70;;;4.93;;
10805;SDS011;5455;53.224;6.000;2023-08-30T01:13:44;6.57;;;4.50;;
10805;SDS011;5455;53.224;6.000;2023-08-30T01:16:17;6.27;;;4.90;;
10805;SDS011;5455;53.224;6.000;2023-08-30T01:18:56;7.30;;;4.80;;
10805;SDS011;5455;53.224;6.000;2023-08-30T01:24:14;6.17;;;5.13;;
10805;SDS011;5455;53.224;6.000;2023-08-30T01:27:07;6.87;;;4.23;;
10805;SDS011;5455;53.224;6.000;2023-08-30T01:29:39;5.63;;;4.73;;
10805;SDS011;5455;53.224;6.000;2023-08-30T01:32:09;7.47;;;4.90;;
10805;SDS011;5455;53.224;6.000;2023-08-30T01:34:36;6.27;;;4.73;;
10805;SDS011;5455;53.224;6.000;2023-08-30T01:37:06;7.10;;;4.77;;
10805;SDS011;5455;53.224;6.000;2023-08-30T01:39:37;5.17;;;4.43;;
10805;SDS011;5455;53.224;6.000;2023-08-30T01:42:07;4.97;;;4.33;;
10805;SDS011;5455;53.224;6.000;2023-08-30T01:44:35;8.30;;;4.80;;
10805;SDS011;5455;53.224;6.000;2023-08-30T01:47:07;6.80;;;4.60;;
10805;SDS011;5455;53.224;6.000;2023-08-30T01:49:35;7.30;;;4.70;;
10805;SDS011;5455;53.224;6.000;2023-08-30T01:52:06;6.33;;;4.93;;
10805;SDS011;5455;53.224;6.000;2023-08-30T01:54:33;6.20;;;4.90;;
10805;SDS011;5455;53.224;6.000;2023-08-30T01:57:01;6.57;;;5.00;;
10805;SDS011;5455;53.224;6.000;2023-08-30T01:59:29;7.10;;;5.07;;
10805;SDS011;5455;53.224;6.000;2023-08-30T02:01:56;6.40;;;4.90;;
10805;SDS011;5455;53.224;6.000;2023-08-30T02:04:23;5.90;;;4.83;;
10805;SDS011;5455;53.224;6.000;2023-08-30T02:12:10;5.90;;;5.17;;
10805;SDS011;5455;53.224;6.000;2023-08-30T02:14:44;6.40;;;4.73;;
10805;SDS011;5455;53.224;6.000;2023-08-30T02:17:15;6.30;;;4.73;;
10805;SDS011;5455;53.224;6.000;2023-08-30T02:19:44;7.30;;;4.90;;
10805;SDS011;5455;53.224;6.000;2023-08-30T02:22:16;6.23;;;4.87;;
10805;SDS011;5455;53.224;6.000;2023-08-30T02:24:44;6.50;;;4.77;;
10805;SDS011;5455;53.224;6.000;2023-08-30T02:27:11;5.90;;;4.80;;
10805;SDS011;5455;53.224;6.000;2023-08-30T02:29:39;6.63;;;5.30;;
10805;SDS011;5455;53.224;6.000;2023-08-30T02:32:06;7.30;;;4.93;;
10805;SDS011;5455;53.224;6.000;2023-08-30T02:34:33;7.30;;;5.13;;
10805;SDS011;5455;53.224;6.000;2023-08-30T02:37:02;5.80;;;4.60;;
10805;SDS011;5455;53.224;6.000;2023-08-30T02:39:30;5.97;;;4.67;;
10805;SDS011;5455;53.224;6.000;2023-08-30T02:41:57;4.67;;;4.17;;
10805;SDS011;5455;53.224;6.000;2023-08-30T02:44:24;9.00;;;4.50;;
10805;SDS011;5455;53.224;6.000;2023-08-30T02:46:51;7.17;;;4.93;;
10805;SDS011;5455;53.224;6.000;2023-08-30T02:49:18;6.00;;;4.80;;
10805;SDS011;5455;53.224;6.000;2023-08-30T02:51:45;5.83;;;4.57;;
10805;SDS011;5455;53.224;6.000;2023-08-30T02:54:12;5.97;;;4.60;;
10805;SDS011;5455;53.224;6.000;2023-08-30T02:56:40;8.77;;;4.93;;
10805;SDS011;5455;53.224;6.000;2023-08-30T02:59:10;6.63;;;4.77;;
10805;SDS011;5455;53.224;6.000;2023-08-30T03:01:38;6.17;;;4.47;;
10805;SDS011;5455;53.224;6.000;2023-08-30T03:04:05;6.57;;;4.80;;
10805;SDS011;5455;53.224;6.000;2023-08-30T03:06:33;7.53;;;5.20;;
10805;SDS011;5455;53.224;6.000;2023-08-30T03:09:01;6.67;;;5.00;;
10805;SDS011;5455;53.224;6.000;2023-08-30T03:11:36;6.47;;;5.23;;
10805;SDS011;5455;53.224;6.000;2023-08-30T03:14:03;7.23;;;4.93;;
10805;SDS011;5455;53.224;6.000;2023-08-30T03:16:30;6.37;;;4.97;;
10805;SDS011;5455;53.224;6.000;2023-08-30T03:18:57;6.63;;;4.87;;
10805;SDS011;5455;53.224;6.000;2023-08-30T03:21:24;6.83;;;5.03;;
10805;SDS011;5455;53.224;6.000;2023-08-30T03:23:51;7.20;;;5.13;;
10805;SDS011;5455;53.224;6.000;2023-08-30T03:26:18;7.57;;;5.03;;
10805;SDS011;5455;53.224;6.000;2023-08-30T03:28:46;5.17;;;4.40;;
10805;SDS011;5455;53.224;6.000;2023-08-30T03:31:16;7.10;;;4.77;;
10805;SDS011;5455;53.224;6.000;2023-08-30T03:33:45;7.43;;;5.03;;
10805;SDS011;5455;53.224;6.000;2023-08-30T03:36:16;7.47;;;5.20;;
10805;SDS011;5455;53.224;6.000;2023-08-30T03:38:44;7.43;;;5.37;;
10805;SDS011;5455;53.224;6.000;2023-08-30T03:41:12;7.37;;;5.13;;
10805;SDS011;5455;53.224;6.000;2023-08-30T03:43:41;8.20;;;5.80;;
10805;SDS011;5455;53.224;6.000;2023-08-30T03:46:09;6.73;;;5.03;;
10805;SDS011;5455;53.224;6.000;2023-08-30T03:48:39;7.37;;;4.87;;
10805;SDS011;5455;53.224;6.000;2023-08-30T03:51:06;6.57;;;4.80;;
10805;SDS011;5455;53.224;6.000;2023-08-30T03:53:34;7.13;;;5.23;;
10805;SDS011;5455;53.224;6.000;2023-08-30T03:56:01;9.73;;;5.60;;
10805;SDS011;5455;53.224;6.000;2023-08-30T03:58:30;8.60;;;5.50;;
10805;SDS011;5455;53.224;6.000;2023-08-30T04:00:57;6.40;;;4.73;;
10805;SDS011;5455;53.224;6.000;2023-08-30T04:03:24;7.20;;;5.40;;
10805;SDS011;5455;53.224;6.000;2023-08-30T04:05:55;9.13;;;5.50;;
10805;SDS011;5455;53.224;6.000;2023-08-30T04:08:23;8.33;;;5.67;;
10805;SDS011;5455;53.224;6.000;2023-08-30T04:10:52;6.93;;;5.10;;
10805;SDS011;5455;53.224;6.000;2023-08-30T04:13:20;7.00;;;5.67;;
10805;SDS011;5455;53.224;6.000;2023-08-30T04:15:47;8.17;;;5.70;;
10805;SDS011;5455;53.224;6.000;2023-08-30T04:18:14;9.67;;;5.50;;
10805;SDS011;5455;53.224;6.000;2023-08-30T04:20:46;8.23;;;5.90;;
10805;SDS011;5455;53.224;6.000;2023-08-30T04:23:17;8.67;;;5.87;;
10805;SDS011;5455;53.224;6.000;2023-08-30T04:25:44;9.23;;;5.97;;
10805;SDS011;5455;53.224;6.000;2023-08-30T04:28:11;8.27;;;6.00;;
10805;SDS011;5455;53.224;6.000;2023-08-30T04:30:38;9.80;;;5.60;;
10805;SDS011;5455;53.224;6.000;2023-08-30T04:33:07;7.90;;;5.53;;
10805;SDS011;5455;53.224;6.000;2023-08-30T04:35:40;7.63;;;5.77;;
10805;SDS011;5455;53.224;6.000;2023-08-30T04:38:07;8.10;;;5.73;;
10805;SDS011;5455;53.224;6.000;2023-08-30T04:40:35;8.27;;;5.77;;
10805;SDS011;5455;53.224;6.000;2023-08-30T04:43:03;7.43;;;5.87;;
10805;SDS011;5455;53.224;6.000;2023-08-30T04:45:30;7.47;;;5.30;;
10805;SDS011;5455;53.224;6.000;2023-08-30T04:47:57;8.63;;;5.80;;
10805;SDS011;5455;53.224;6.000;2023-08-30T04:50:25;8.07;;;5.80;;
10805;SDS011;5455;53.224;6.000;2023-08-30T04:52:52;7.97;;;5.90;;
10805;SDS011;5455;53.224;6.000;2023-08-30T04:55:23;8.93;;;6.10;;
10805;SDS011;5455;53.224;6.000;2023-08-30T04:57:54;8.27;;;4.93;;
10805;SDS011;5455;53.224;6.000;2023-08-30T05:00:28;8.50;;;5.77;;
10805;SDS011;5455;53.224;6.000;2023-08-30T05:02:56;8.57;;;5.07;;
10805;SDS011;5455;53.224;6.000;2023-08-30T05:05:23;8.37;;;5.57;;
10805;SDS011;5455;53.224;6.000;2023-08-30T05:07:50;7.60;;;5.70;;
10805;SDS011;5455;53.224;6.000;2023-08-30T05:10:17;7.70;;;5.47;;
10805;SDS011;5455;53.224;6.000;2023-08-30T05:12:44;9.07;;;5.67;;
10805;SDS011;5455;53.224;6.000;2023-08-30T05:15:16;7.50;;;5.50;;
10805;SDS011;5455;53.224;6.000;2023-08-30T05:17:43;7.27;;;4.73;;
10805;SDS011;5455;53.224;6.000;2023-08-30T05:20:11;9.43;;;6.00;;
10805;SDS011;5455;53.224;6.000;2023-08-30T05:22:38;8.63;;;5.37;;
10805;SDS011;5455;53.224;6.000;2023-08-30T05:25:06;8.33;;;5.20;;
10805;SDS011;5455;53.224;6.000;2023-08-30T05:27:33;8.30;;;5.50;;
10805;SDS011;5455;53.224;6.000;2023-08-30T05:30:02;10.80;;;6.23;;
10805;SDS011;5455;53.224;6.000;2023-08-30T05:32:31;10.27;;;5.87;;
10805;SDS011;5455;53.224;6.000;2023-08-30T05:35:17;7.57;;;5.67;;
10805;SDS011;5455;53.224;6.000;2023-08-30T05:38:03;8.63;;;5.80;;
10805;SDS011;5455;53.224;6.000;2023-08-30T05:40:45;8.23;;;5.83;;
10805;SDS011;5455;53.224;6.000;2023-08-30T05:43:12;7.27;;;5.37;;
10805;SDS011;5455;53.224;6.000;2023-08-30T05:45:39;9.27;;;5.57;;
10805;SDS011;5455;53.224;6.000;2023-08-30T05:48:07;7.13;;;4.50;;
10805;SDS011;5455;53.224;6.000;2023-08-30T05:50:34;9.20;;;6.53;;
10805;SDS011;5455;53.224;6.000;2023-08-30T05:53:02;8.30;;;5.33;;
10805;SDS011;5455;53.224;6.000;2023-08-30T05:55:31;9.60;;;6.07;;
10805;SDS011;5455;53.224;6.000;2023-08-30T05:57:58;9.43;;;5.40;;
10805;SDS011;5455;53.224;6.000;2023-08-30T06:00:26;8.33;;;6.13;;
10805;SDS011;5455;53.224;6.000;2023-08-30T06:02:52;10.27;;;5.97;;
10805;SDS011;5455;53.224;6.000;2023-08-30T06:05:19;9.77;;;5.90;;
10805;SDS011;5455;53.224;6.000;2023-08-30T06:07:47;9.30;;;5.90;;
10805;SDS011;5455;53.224;6.000;2023-08-30T06:10:14;7.73;;;5.90;;
10805;SDS011;5455;53.224;6.000;2023-08-30T06:12:41;9.13;;;6.03;;
10805;SDS011;5455;53.224;6.000;2023-08-30T06:15:09;8.43;;;5.93;;
10805;SDS011;5455;53.224;6.000;2023-08-30T06:17:36;9.40;;;6.03;;
10805;SDS011;5455;53.224;6.000;2023-08-30T06:20:03;10.67;;;6.13;;
10805;SDS011;5455;53.224;6.000;2023-08-30T06:22:31;9.93;;;6.50;;
10805;SDS011;5455;53.224;6.000;2023-08-30T06:24:58;9.13;;;5.77;;
10805;SDS011;5455;53.224;6.000;2023-08-30T06:27:25;8.67;;;6.47;;
10805;SDS011;5455;53.224;6.000;2023-08-30T06:29:52;17.03;;;6.40;;
10805;SDS011;5455;53.224;6.000;2023-08-30T06:32:19;9.23;;;6.43;;
10805;SDS011;5455;53.224;6.000;2023-08-30T06:34:47;9.03;;;6.00;;
10805;SDS011;5455;53.224;6.000;2023-08-30T06:37:14;9.90;;;6.40;;
10805;SDS011;5455;53.224;6.000;2023-08-30T06:39:41;9.43;;;6.10;;
10805;SDS011;5455;53.224;6.000;2023-08-30T06:42:08;9.93;;;6.50;;
10805;SDS011;5455;53.224;6.000;2023-08-30T06:44:38;7.83;;;5.57;;
10805;SDS011;5455;53.224;6.000;2023-08-30T06:47:11;9.43;;;5.90;;
10805;SDS011;5455;53.224;6.000;2023-08-30T06:49:41;12.53;;;6.40;;
10805;SDS011;5455;53.224;6.000;2023-08-30T06:52:07;8.50;;;5.40;;
10805;SDS011;5455;53.224;6.000;2023-08-30T06:54:34;11.00;;;6.03;;
10805;SDS011;5455;53.224;6.000;2023-08-30T06:57:03;7.57;;;5.40;;
10805;SDS011;5455;53.224;6.000;2023-08-30T06:59:31;9.13;;;5.80;;
10805;SDS011;5455;53.224;6.000;2023-08-30T07:01:58;10.77;;;5.63;;
10805;SDS011;5455;53.224;6.000;2023-08-30T07:04:25;9.47;;;5.37;;
10805;SDS011;5455;53.224;6.000;2023-08-30T07:06:52;8.37;;;5.37;;
10805;SDS011;5455;53.224;6.000;2023-08-30T07:09:19;9.90;;;5.50;;
10805;SDS011;5455;53.224;6.000;2023-08-30T07:11:48;8.20;;;4.67;;
10805;SDS011;5455;53.224;6.000;2023-08-30T07:14:15;9.53;;;5.53;;
10805;SDS011;5455;53.224;6.000;2023-08-30T07:16:42;7.40;;;4.60;;
10805;SDS011;5455;53.224;6.000;2023-08-30T07:19:13;6.43;;;4.57;;
10805;SDS011;5455;53.224;6.000;2023-08-30T07:21:40;8.73;;;5.07;;
10805;SDS011;5455;53.224;6.000;2023-08-30T07:24:07;8.10;;;4.93;;
10805;SDS011;5455;53.224;6.000;2023-08-30T07:26:34;10.07;;;4.40;;
10805;SDS011;5455;53.224;6.000;2023-08-30T07:29:02;8.23;;;5.10;;
10805;SDS011;5455;53.224;6.000;2023-08-30T07:31:33;8.23;;;5.20;;
10805;SDS011;5455;53.224;6.000;2023-08-30T07:34:02;7.93;;;4.90;;
10805;SDS011;5455;53.224;6.000;2023-08-30T07:36:29;7.07;;;4.67;;
10805;SDS011;5455;53.224;6.000;2023-08-30T07:39:13;10.13;;;4.80;;
10805;SDS011;5455;53.224;6.000;2023-08-30T07:41:40;8.33;;;4.43;;
10805;SDS011;5455;53.224;6.000;2023-08-30T07:44:07;7.93;;;4.83;;
10805;SDS011;5455;53.224;6.000;2023-08-30T07:46:35;7.37;;;4.23;;
10805;SDS011;5455;53.224;6.000;2023-08-30T07:49:02;9.03;;;5.03;;
10805;SDS011;5455;53.224;6.000;2023-08-30T07:51:29;7.37;;;4.27;;
10805;SDS011;5455;53.224;6.000;2023-08-30T07:53:56;8.50;;;4.97;;
10805;SDS011;5455;53.224;6.000;2023-08-30T07:56:23;7.93;;;4.40;;
10805;SDS011;5455;53.224;6.000;2023-08-30T07:58:50;8.23;;;4.83;;
10805;SDS011;5455;53.224;6.000;2023-08-30T08:01:18;7.50;;;5.37;;
10805;SDS011;5455;53.224;6.000;2023-08-30T08:03:45;7.20;;;4.03;;
10805;SDS011;5455;53.224;6.000;2023-08-30T08:06:33;6.63;;;4.70;;
10805;SDS011;5455;53.224;6.000;2023-08-30T08:09:01;9.30;;;5.30;;
10805;SDS011;5455;53.224;6.000;2023-08-30T08:11:28;8.77;;;4.53;;
10805;SDS011;5455;53.224;6.000;2023-08-30T08:13:55;7.90;;;4.93;;
10805;SDS011;5455;53.224;6.000;2023-08-30T08:16:23;7.60;;;4.50;;
10805;SDS011;5455;53.224;6.000;2023-08-30T08:18:49;9.57;;;5.50;;
10805;SDS011;5455;53.224;6.000;2023-08-30T08:21:18;7.03;;;4.90;;
10805;SDS011;5455;53.224;6.000;2023-08-30T08:23:45;9.20;;;5.30;;
10805;SDS011;5455;53.224;6.000;2023-08-30T08:26:16;9.97;;;5.33;;
10805;SDS011;5455;53.224;6.000;2023-08-30T08:28:43;7.83;;;5.37;;
10805;SDS011;5455;53.224;6.000;2023-08-30T08:31:10;8.97;;;4.93;;
10805;SDS011;5455;53.224;6.000;2023-08-30T08:33:37;7.00;;;4.67;;
10805;SDS011;5455;53.224;6.000;2023-08-30T08:36:04;8.37;;;5.10;;
10805;SDS011;5455;53.224;6.000;2023-08-30T08:38:32;8.17;;;5.00;;
10805;SDS011;5455;53.224;6.000;2023-08-30T08:41:02;8.37;;;4.87;;
10805;SDS011;5455;53.224;6.000;2023-08-30T08:43:32;9.73;;;4.97;;
10805;SDS011;5455;53.224;6.000;2023-08-30T08:46:05;7.73;;;4.67;;
10805;SDS011;5455;53.224;6.000;2023-08-30T08:48:35;8.13;;;4.63;;
10805;SDS011;5455;53.224;6.000;2023-08-30T08:51:06;7.20;;;4.97;;
10805;SDS011;5455;53.224;6.000;2023-08-30T08:53:33;7.50;;;5.33;;
10805;SDS011;5455;53.224;6.000;2023-08-30T08:56:00;8.80;;;5.10;;
10805;SDS011;5455;53.224;6.000;2023-08-30T08:58:28;9.50;;;4.83;;
10805;SDS011;5455;53.224;6.000;2023-08-30T09:00:56;9.60;;;4.87;;
10805;SDS011;5455;53.224;6.000;2023-08-30T09:03:24;8.87;;;4.70;;
10805;SDS011;5455;53.224;6.000;2023-08-30T09:05:52;8.20;;;4.73;;
10805;SDS011;5455;53.224;6.000;2023-08-30T09:08:19;10.70;;;5.20;;
10805;SDS011;5455;53.224;6.000;2023-08-30T09:10:48;8.97;;;4.80;;
10805;SDS011;5455;53.224;6.000;2023-08-30T09:13:17;7.10;;;4.57;;
10805;SDS011;5455;53.224;6.000;2023-08-30T09:15:45;9.03;;;5.13;;
10805;SDS011;5455;53.224;6.000;2023-08-30T09:18:18;7.70;;;4.03;;
10805;SDS011;5455;53.224;6.000;2023-08-30T09:20:45;5.77;;;3.73;;
10805;SDS011;5455;53.224;6.000;2023-08-30T09:23:19;5.30;;;3.53;;
10805;SDS011;5455;53.224;6.000;2023-08-30T09:25:47;6.10;;;3.43;;
10805;SDS011;5455;53.224;6.000;2023-08-30T09:28:20;5.23;;;3.53;;
10805;SDS011;5455;53.224;6.000;2023-08-30T09:30:51;5.87;;;3.27;;
10805;SDS011;5455;53.224;6.000;2023-08-30T09:33:31;4.33;;;3.03;;
10805;SDS011;5455;53.224;6.000;2023-08-30T09:35:59;4.53;;;3.40;;
10805;SDS011;5455;53.224;6.000;2023-08-30T09:38:27;6.93;;;3.80;;
10805;SDS011;5455;53.224;6.000;2023-08-30T09:41:04;5.80;;;3.63;;
10805;SDS011;5455;53.224;6.000;2023-08-30T09:43:32;5.17;;;3.77;;
10805;SDS011;5455;53.224;6.000;2023-08-30T09:46:04;5.40;;;3.53;;
10805;SDS011;5455;53.224;6.000;2023-08-30T09:48:32;5.67;;;3.20;;
10805;SDS011;5455;53.224;6.000;2023-08-30T09:51:01;7.33;;;5.00;;
10805;SDS011;5455;53.224;6.000;2023-08-30T09:53:30;9.80;;;5.27;;
10805;SDS011;5455;53.224;6.000;2023-08-30T09:56:15;7.43;;;4.93;;
10805;SDS011;5455;53.224;6.000;2023-08-30T09:58:42;6.80;;;4.07;;
10805;SDS011;5455;53.224;6.000;2023-08-30T10:01:11;5.53;;;3.70;;
10805;SDS011;5455;53.224;6.000;2023-08-30T10:03:38;6.87;;;3.57;;
10805;SDS011;5455;53.224;6.000;2023-08-30T10:06:08;5.60;;;3.47;;
10805;SDS011;5455;53.224;6.000;2023-08-30T10:08:35;5.57;;;3.70;;
10805;SDS011;5455;53.224;6.000;2023-08-30T10:11:05;6.87;;;3.83;;
10805;SDS011;5455;53.224;6.000;2023-08-30T10:13:33;5.17;;;3.50;;
10805;SDS011;5455;53.224;6.000;2023-08-30T10:16:04;5.67;;;3.67;;
10805;SDS011;5455;53.224;6.000;2023-08-30T10:18:32;5.13;;;3.80;;
10805;SDS011;5455;53.224;6.000;2023-08-30T10:21:01;5.63;;;4.00;;
10805;SDS011;5455;53.224;6.000;2023-08-30T10:23:33;5.47;;;3.63;;
10805;SDS011;5455;53.224;6.000;2023-08-30T10:26:03;5.90;;;4.17;;
10805;SDS011;5455;53.224;6.000;2023-08-30T10:28:32;5.43;;;3.97;;
10805;SDS011;5455;53.224;6.000;2023-08-30T10:31:02;5.53;;;4.27;;
10805;SDS011;5455;53.224;6.000;2023-08-30T10:33:32;5.23;;;3.93;;
10805;SDS011;5455;53.224;6.000;2023-08-30T10:36:05;6.50;;;4.33;;
10805;SDS011;5455;53.224;6.000;2023-08-30T10:38:32;9.83;;;5.70;;
10805;SDS011;5455;53.224;6.000;2023-08-30T10:41:05;8.90;;;5.77;;
10805;SDS011;5455;53.224;6.000;2023-08-30T10:43:35;14.33;;;8.10;;
10805;SDS011;5455;53.224;6.000;2023-08-30T10:46:05;7.23;;;4.80;;
10805;SDS011;5455;53.224;6.000;2023-08-30T10:48:39;7.70;;;3.87;;
10805;SDS011;5455;53.224;6.000;2023-08-30T10:51:19;5.50;;;3.33;;
10805;SDS011;5455;53.224;6.000;2023-08-30T10:53:55;6.37;;;3.60;;
10805;SDS011;5455;53.224;6.000;2023-08-30T10:56:26;7.30;;;3.13;;
10805;SDS011;5455;53.224;6.000;2023-08-30T10:58:57;4.10;;;2.93;;
10805;SDS011;5455;53.224;6.000;2023-08-30T11:01:24;4.93;;;3.27;;
10805;SDS011;5455;53.224;6.000;2023-08-30T11:03:52;5.80;;;3.03;;
10805;SDS011;5455;53.224;6.000;2023-08-30T11:06:40;7.80;;;3.10;;
10805;SDS011;5455;53.224;6.000;2023-08-30T11:09:09;4.47;;;2.87;;
10805;SDS011;5455;53.224;6.000;2023-08-30T11:11:39;3.80;;;2.47;;
10805;SDS011;5455;53.224;6.000;2023-08-30T11:14:09;4.97;;;3.00;;
10805;SDS011;5455;53.224;6.000;2023-08-30T11:16:36;4.87;;;2.77;;
10805;SDS011;5455;53.224;6.000;2023-08-30T11:19:05;4.07;;;2.83;;
10805;SDS011;5455;53.224;6.000;2023-08-30T11:21:34;5.40;;;3.47;;
10805;SDS011;5455;53.224;6.000;2023-08-30T11:24:04;4.57;;;3.20;;
10805;SDS011;5455;53.224;6.000;2023-08-30T11:26:33;3.67;;;2.83;;
10805;SDS011;5455;53.224;6.000;2023-08-30T11:29:04;3.57;;;3.07;;
10805;SDS011;5455;53.224;6.000;2023-08-30T11:31:32;3.77;;;2.90;;
10805;SDS011;5455;53.224;6.000;2023-08-30T11:34:00;4.47;;;3.07;;
10805;SDS011;5455;53.224;6.000;2023-08-30T11:36:29;5.63;;;3.80;;
10805;SDS011;5455;53.224;6.000;2023-08-30T11:38:58;5.33;;;3.50;;
10805;SDS011;5455;53.224;6.000;2023-08-30T11:41:26;4.60;;;3.30;;
10805;SDS011;5455;53.224;6.000;2023-08-30T11:43:53;4.33;;;3.17;;
10805;SDS011;5455;53.224;6.000;2023-08-30T11:46:22;5.53;;;3.60;;
10805;SDS011;5455;53.224;6.000;2023-08-30T11:48:49;4.93;;;3.50;;
10805;SDS011;5455;53.224;6.000;2023-08-30T11:51:17;5.37;;;3.67;;
10805;SDS011;5455;53.224;6.000;2023-08-30T11:53:45;5.57;;;3.43;;
10805;SDS011;5455;53.224;6.000;2023-08-30T11:56:13;4.00;;;3.10;;
10805;SDS011;5455;53.224;6.000;2023-08-30T11:58:40;6.53;;;4.27;;
10805;SDS011;5455;53.224;6.000;2023-08-30T12:01:07;5.37;;;3.87;;
10805;SDS011;5455;53.224;6.000;2023-08-30T12:03:35;6.37;;;3.60;;
10805;SDS011;5455;53.224;6.000;2023-08-30T12:06:08;5.00;;;3.30;;
10805;SDS011;5455;53.224;6.000;2023-08-30T12:08:38;4.53;;;3.13;;
10805;SDS011;5455;53.224;6.000;2023-08-30T12:11:16;5.73;;;3.27;;
10805;SDS011;5455;53.224;6.000;2023-08-30T12:13:44;4.10;;;3.17;;
10805;SDS011;5455;53.224;6.000;2023-08-30T12:16:15;5.10;;;3.37;;
10805;SDS011;5455;53.224;6.000;2023-08-30T12:18:44;4.70;;;3.20;;
10805;SDS011;5455;53.224;6.000;2023-08-30T12:21:12;4.27;;;3.23;;
10805;SDS011;5455;53.224;6.000;2023-08-30T12:23:39;4.27;;;3.37;;
10805;SDS011;5455;53.224;6.000;2023-08-30T12:26:07;5.30;;;3.87;;
10805;SDS011;5455;53.224;6.000;2023-08-30T12:28:37;6.30;;;4.03;;
10805;SDS011;5455;53.224;6.000;2023-08-30T12:31:06;5.20;;;3.93;;
10805;SDS011;5455;53.224;6.000;2023-08-30T12:33:34;5.20;;;3.70;;
10805;SDS011;5455;53.224;6.000;2023-08-30T12:36:01;5.53;;;4.00;;
10805;SDS011;5455;53.224;6.000;2023-08-30T12:38:29;5.80;;;3.93;;
10805;SDS011;5455;53.224;6.000;2023-08-30T12:40:57;5.07;;;3.80;;
10805;SDS011;5455;53.224;6.000;2023-08-30T12:43:24;4.97;;;3.57;;
10805;SDS011;5455;53.224;6.000;2023-08-30T12:45:51;3.20;;;2.70;;
10805;SDS011;5455;53.224;6.000;2023-08-30T12:48:19;3.53;;;2.83;;
10805;SDS011;5455;53.224;6.000;2023-08-30T12:50:46;3.00;;;2.53;;
10805;SDS011;5455;53.224;6.000;2023-08-30T12:53:14;3.93;;;2.90;;
10805;SDS011;5455;53.224;6.000;2023-08-30T12:55:43;3.67;;;2.90;;
10805;SDS011;5455;53.224;6.000;2023-08-30T12:58:10;3.67;;;2.70;;
10805;SDS011;5455;53.224;6.000;2023-08-30T13:00:38;4.70;;;2.80;;
10805;SDS011;5455;53.224;6.000;2023-08-30T13:03:05;2.97;;;2.60;;
10805;SDS011;5455;53.224;6.000;2023-08-30T13:05:34;3.83;;;3.30;;
10805;SDS011;5455;53.224;6.000;2023-08-30T13:08:02;4.17;;;2.83;;
10805;SDS011;5455;53.224;6.000;2023-08-30T13:10:30;3.20;;;2.20;;
10805;SDS011;5455;53.224;6.000;2023-08-30T13:12:58;4.20;;;2.33;;
10805;SDS011;5455;53.224;6.000;2023-08-30T13:15:25;2.83;;;2.13;;
10805;SDS011;5455;53.224;6.000;2023-08-30T13:17:52;3.17;;;2.10;;
10805;SDS011;5455;53.224;6.000;2023-08-30T13:20:20;2.13;;;1.80;;
10805;SDS011;5455;53.224;6.000;2023-08-30T13:22:47;3.07;;;1.87;;
10805;SDS011;5455;53.224;6.000;2023-08-30T13:25:14;2.73;;;2.20;;
10805;SDS011;5455;53.224;6.000;2023-08-30T13:27:41;3.03;;;1.63;;
10805;SDS011;5455;53.224;6.000;2023-08-30T13:30:08;3.17;;;1.93;;
10805;SDS011;5455;53.224;6.000;2023-08-30T13:32:36;2.30;;;2.10;;
10805;SDS011;5455;53.224;6.000;2023-08-30T13:35:03;3.00;;;2.23;;
10805;SDS011;5455;53.224;6.000;2023-08-30T13:37:31;2.53;;;2.03;;
10805;SDS011;5455;53.224;6.000;2023-08-30T13:39:58;2.47;;;2.10;;
10805;SDS011;5455;53.224;6.000;2023-08-30T13:42:25;4.73;;;3.00;;
10805;SDS011;5455;53.224;6.000;2023-08-30T13:44:52;3.20;;;2.90;;
10805;SDS011;5455;53.224;6.000;2023-08-30T13:47:19;2.93;;;2.60;;
10805;SDS011;5455;53.224;6.000;2023-08-30T13:49:47;4.87;;;2.80;;
10805;SDS011;5455;53.224;6.000;2023-08-30T13:52:14;3.53;;;2.70;;
10805;SDS011;5455;53.224;6.000;2023-08-30T13:54:43;4.20;;;3.07;;
10805;SDS011;5455;53.224;6.000;2023-08-30T13:57:10;4.40;;;3.37;;
10805;SDS011;5455;53.224;6.000;2023-08-30T13:59:37;3.70;;;3.20;;
10805;SDS011;5455;53.224;6.000;2023-08-30T14:02:04;4.60;;;3.00;;
10805;SDS011;5455;53.224;6.000;2023-08-30T14:04:33;4.27;;;3.30;;
10805;SDS011;5455;53.224;6.000;2023-08-30T14:07:02;3.60;;;3.03;;
10805;SDS011;5455;53.224;6.000;2023-08-30T14:09:30;4.27;;;2.73;;
10805;SDS011;5455;53.224;6.000;2023-08-30T14:11:57;5.50;;;3.50;;
10805;SDS011;5455;53.224;6.000;2023-08-30T14:14:24;3.97;;;2.83;;
10805;SDS011;5455;53.224;6.000;2023-08-30T14:16:51;4.73;;;3.27;;
10805;SDS011;5455;53.224;6.000;2023-08-30T14:19:19;7.80;;;5.40;;
10805;SDS011;5455;53.224;6.000;2023-08-30T14:21:46;4.30;;;3.30;;
10805;SDS011;5455;53.224;6.000;2023-08-30T14:24:12;3.97;;;3.07;;
10805;SDS011;5455;53.224;6.000;2023-08-30T14:26:40;3.63;;;3.07;;
10805;SDS011;5455;53.224;6.000;2023-08-30T14:29:07;3.73;;;3.03;;
10805;SDS011;5455;53.224;6.000;2023-08-30T14:31:34;4.77;;;2.80;;
10805;SDS011;5455;53.224;6.000;2023-08-30T14:34:02;9.47;;;6.83;;
10805;SDS011;5455;53.224;6.000;2023-08-30T14:36:30;5.93;;;3.27;;
10805;SDS011;5455;53.224;6.000;2023-08-30T14:38:57;7.73;;;3.97;;
10805;SDS011;5455;53.224;6.000;2023-08-30T14:41:24;4.80;;;3.17;;
10805;SDS011;5455;53.224;6.000;2023-08-30T14:43:51;4.90;;;2.70;;
10805;SDS011;5455;53.224;6.000;2023-08-30T14:46:18;5.13;;;3.20;;
10805;SDS011;5455;53.224;6.000;2023-08-30T14:48:50;5.27;;;2.97;;
10805;SDS011;5455;53.224;6.000;2023-08-30T14:51:17;3.80;;;2.80;;
10805;SDS011;5455;53.224;6.000;2023-08-30T14:53:44;4.40;;;2.90;;
10805;SDS011;5455;53.224;6.000;2023-08-30T14:56:11;4.43;;;2.70;;
10805;SDS011;5455;53.224;6.000;2023-08-30T14:58:38;3.13;;;2.17;;
10805;SDS011;5455;53.224;6.000;2023-08-30T15:01:09;5.00;;;2.70;;
10805;SDS011;5455;53.224;6.000;2023-08-30T15:03:36;3.40;;;2.03;;
10805;SDS011;5455;53.224;6.000;2023-08-30T15:06:04;4.70;;;1.70;;
10805;SDS011;5455;53.224;6.000;2023-08-30T15:08:31;3.27;;;1.20;;
10805;SDS011;5455;53.224;6.000;2023-08-30T15:10:59;4.00;;;1.00;;
10805;SDS011;5455;53.224;6.000;2023-08-30T15:13:26;2.77;;;0.80;;
10805;SDS011;5455;53.224;6.000;2023-08-30T15:15:53;8.27;;;0.97;;
10805;SDS011;5455;53.224;6.000;2023-08-30T15:18:21;1.40;;;0.60;;
10805;SDS011;5455;53.224;6.000;2023-08-30T15:20:50;1.53;;;0.50;;